sensor_id;sensor_type;location;lat;lon;timestamp;temperature;humidity
9845;DHT22;4961;50.782;6.080;2022-10-26T00:01:30;15.10;99.90
9845;DHT22;4961;50.782;6.080;2022-10-26T00:03:59;15.10;99.90
9845;DHT22;4961;50.782;6.080;2022-10-26T00:06:28;15.10;99.90
9845;DHT22;4961;50.782;6.080;2022-10-26T00:08:57;15.10;99.90
9845;DHT22;4961;50.782;6.080;2022-10-26T00:11:26;15.10;99.90
9845;DHT22;4961;50.782;6.080;2022-10-26T00:13:55;15.10;99.90
9845;DHT22;4961;50.782;6.080;2022-10-26T00:16:25;15.10;99.90
9845;DHT22;4961;50.782;6.080;2022-10-26T00:18:56;15.10;99.90
9845;DHT22;4961;50.782;6.080;2022-10-26T00:21:25;15.20;99.90
9845;DHT22;4961;50.782;6.080;2022-10-26T00:23:53;15.20;99.90
9845;DHT22;4961;50.782;6.080;2022-10-26T00:26:22;15.30;99.90
9845;DHT22;4961;50.782;6.080;2022-10-26T00:28:52;15.30;99.90
9845;DHT22;4961;50.782;6.080;2022-10-26T00:31:22;15.30;99.90
9845;DHT22;4961;50.782;6.080;2022-10-26T00:33:52;15.30;99.90
9845;DHT22;4961;50.782;6.080;2022-10-26T00:36:23;15.40;99.90
9845;DHT22;4961;50.782;6.080;2022-10-26T00:38:54;15.40;99.90
9845;DHT22;4961;50.782;6.080;2022-10-26T00:41:25;15.40;99.90
9845;DHT22;4961;50.782;6.080;2022-10-26T00:43:55;15.50;99.90
9845;DHT22;4961;50.782;6.080;2022-10-26T00:46:25;15.50;99.90
9845;DHT22;4961;50.782;6.080;2022-10-26T00:48:57;15.50;99.90
9845;DHT22;4961;50.782;6.080;2022-10-26T00:51:30;15.60;99.90
9845;DHT22;4961;50.782;6.080;2022-10-26T00:54:02;15.60;99.90
9845;DHT22;4961;50.782;6.080;2022-10-26T00:56:31;15.60;99.90
9845;DHT22;4961;50.782;6.080;2022-10-26T00:59:03;15.60;99.90
9845;DHT22;4961;50.782;6.080;2022-10-26T01:01:34;15.70;99.90
9845;DHT22;4961;50.782;6.080;2022-10-26T01:04:04;15.70;99.90
9845;DHT22;4961;50.782;6.080;2022-10-26T01:06:36;15.70;99.90
9845;DHT22;4961;50.782;6.080;2022-10-26T01:09:05;15.80;99.90
9845;DHT22;4961;50.782;6.080;2022-10-26T01:11:33;15.90;99.90
9845;DHT22;4961;50.782;6.080;2022-10-26T01:14:04;15.90;99.90
9845;DHT22;4961;50.782;6.080;2022-10-26T01:16:51;15.90;99.90
9845;DHT22;4961;50.782;6.080;2022-10-26T01:22:35;16.00;99.90
9845;DHT22;4961;50.782;6.080;2022-10-26T01:25:15;16.00;99.90
9845;DHT22;4961;50.782;6.080;2022-10-26T01:27:49;16.00;99.90
9845;DHT22;4961;50.782;6.080;2022-10-26T01:30:22;16.00;99.90
9845;DHT22;4961;50.782;6.080;2022-10-26T01:33:19;16.10;99.90
9845;DHT22;4961;50.782;6.080;2022-10-26T01:35:54;16.20;99.90
9845;DHT22;4961;50.782;6.080;2022-10-26T01:38:30;16.20;99.90
9845;DHT22;4961;50.782;6.080;2022-10-26T01:41:04;16.20;99.90
9845;DHT22;4961;50.782;6.080;2022-10-26T01:43:39;16.20;99.90
9845;DHT22;4961;50.782;6.080;2022-10-26T01:46:10;16.20;99.90
9845;DHT22;4961;50.782;6.080;2022-10-26T01:48:43;16.30;99.90
9845;DHT22;4961;50.782;6.080;2022-10-26T01:51:13;16.30;99.90
9845;DHT22;4961;50.782;6.080;2022-10-26T01:53:44;16.30;99.90
9845;DHT22;4961;50.782;6.080;2022-10-26T01:56:17;16.30;99.90
9845;DHT22;4961;50.782;6.080;2022-10-26T01:59:08;16.30;99.90
9845;DHT22;4961;50.782;6.080;2022-10-26T02:02:05;16.30;99.90
9845;DHT22;4961;50.782;6.080;2022-10-26T02:04:44;16.40;99.90
9845;DHT22;4961;50.782;6.080;2022-10-26T02:07:22;16.30;99.90
9845;DHT22;4961;50.782;6.080;2022-10-26T02:09:58;16.30;99.90
9845;DHT22;4961;50.782;6.080;2022-10-26T02:12:33;16.30;99.90
9845;DHT22;4961;50.782;6.080;2022-10-26T02:15:08;16.20;99.90
9845;DHT22;4961;50.782;6.080;2022-10-26T02:17:46;16.30;99.90
9845;DHT22;4961;50.782;6.080;2022-10-26T02:20:21;16.30;99.90
9845;DHT22;4961;50.782;6.080;2022-10-26T02:22:52;16.20;99.90
9845;DHT22;4961;50.782;6.080;2022-10-26T02:25:24;16.30;99.90
9845;DHT22;4961;50.782;6.080;2022-10-26T02:27:58;16.30;99.90
9845;DHT22;4961;50.782;6.080;2022-10-26T02:30:27;16.30;99.90
9845;DHT22;4961;50.782;6.080;2022-10-26T02:32:58;16.30;99.90
9845;DHT22;4961;50.782;6.080;2022-10-26T02:35:29;16.30;99.90
9845;DHT22;4961;50.782;6.080;2022-10-26T02:38:01;16.30;99.90
9845;DHT22;4961;50.782;6.080;2022-10-26T02:40:33;16.30;99.90
9845;DHT22;4961;50.782;6.080;2022-10-26T02:43:05;16.30;99.90
9845;DHT22;4961;50.782;6.080;2022-10-26T02:45:37;16.30;99.90
9845;DHT22;4961;50.782;6.080;2022-10-26T02:48:09;16.40;99.90
9845;DHT22;4961;50.782;6.080;2022-10-26T02:50:43;16.30;99.90
9845;DHT22;4961;50.782;6.080;2022-10-26T02:53:17;16.40;99.90
9845;DHT22;4961;50.782;6.080;2022-10-26T02:55:50;16.40;99.90
9845;DHT22;4961;50.782;6.080;2022-10-26T02:58:22;16.40;99.90
9845;DHT22;4961;50.782;6.080;2022-10-26T03:00:53;16.40;99.90
9845;DHT22;4961;50.782;6.080;2022-10-26T03:03:23;16.40;99.90
9845;DHT22;4961;50.782;6.080;2022-10-26T03:05:51;16.40;99.90
9845;DHT22;4961;50.782;6.080;2022-10-26T03:08:19;16.40;99.90
9845;DHT22;4961;50.782;6.080;2022-10-26T03:10:48;16.40;99.90
9845;DHT22;4961;50.782;6.080;2022-10-26T03:13:16;16.40;99.90
9845;DHT22;4961;50.782;6.080;2022-10-26T03:15:44;16.40;99.90
9845;DHT22;4961;50.782;6.080;2022-10-26T03:18:12;16.40;99.90
9845;DHT22;4961;50.782;6.080;2022-10-26T03:20:44;16.40;99.90
9845;DHT22;4961;50.782;6.080;2022-10-26T03:23:12;16.40;99.90
9845;DHT22;4961;50.782;6.080;2022-10-26T03:25:41;16.40;99.90
9845;DHT22;4961;50.782;6.080;2022-10-26T03:28:09;16.40;99.90
9845;DHT22;4961;50.782;6.080;2022-10-26T03:30:37;16.50;99.90
9845;DHT22;4961;50.782;6.080;2022-10-26T03:33:06;16.50;99.90
9845;DHT22;4961;50.782;6.080;2022-10-26T03:35:34;16.40;99.90
9845;DHT22;4961;50.782;6.080;2022-10-26T03:38:04;16.40;99.90
9845;DHT22;4961;50.782;6.080;2022-10-26T03:40:32;16.40;99.90
9845;DHT22;4961;50.782;6.080;2022-10-26T03:43:01;16.40;99.90
9845;DHT22;4961;50.782;6.080;2022-10-26T03:45:30;16.40;99.90
9845;DHT22;4961;50.782;6.080;2022-10-26T03:47:58;16.40;99.90
9845;DHT22;4961;50.782;6.080;2022-10-26T03:50:26;16.40;99.90
9845;DHT22;4961;50.782;6.080;2022-10-26T03:52:54;16.40;99.90
9845;DHT22;4961;50.782;6.080;2022-10-26T03:55:24;16.40;99.90
9845;DHT22;4961;50.782;6.080;2022-10-26T03:57:53;16.40;99.90
9845;DHT22;4961;50.782;6.080;2022-10-26T04:00:21;16.50;99.90
9845;DHT22;4961;50.782;6.080;2022-10-26T04:02:54;16.50;99.90
9845;DHT22;4961;50.782;6.080;2022-10-26T04:05:25;16.50;99.90
9845;DHT22;4961;50.782;6.080;2022-10-26T04:07:54;16.50;99.90
9845;DHT22;4961;50.782;6.080;2022-10-26T04:10:25;16.40;99.90
9845;DHT22;4961;50.782;6.080;2022-10-26T04:12:54;16.40;99.90
9845;DHT22;4961;50.782;6.080;2022-10-26T04:15:23;16.40;99.90
9845;DHT22;4961;50.782;6.080;2022-10-26T04:17:55;16.50;99.90
9845;DHT22;4961;50.782;6.080;2022-10-26T04:20:24;16.40;99.90
9845;DHT22;4961;50.782;6.080;2022-10-26T04:22:57;16.40;99.90
9845;DHT22;4961;50.782;6.080;2022-10-26T04:25:27;16.40;99.90
9845;DHT22;4961;50.782;6.080;2022-10-26T04:27:59;16.40;99.90
9845;DHT22;4961;50.782;6.080;2022-10-26T04:30:28;16.30;99.90
9845;DHT22;4961;50.782;6.080;2022-10-26T04:32:56;16.30;99.90
9845;DHT22;4961;50.782;6.080;2022-10-26T04:35:24;16.30;99.90
9845;DHT22;4961;50.782;6.080;2022-10-26T04:37:56;16.30;99.90
9845;DHT22;4961;50.782;6.080;2022-10-26T04:40:26;16.40;99.90
9845;DHT22;4961;50.782;6.080;2022-10-26T04:42:55;16.30;99.90
9845;DHT22;4961;50.782;6.080;2022-10-26T04:45:23;16.30;99.90
9845;DHT22;4961;50.782;6.080;2022-10-26T04:48:01;16.30;99.90
9845;DHT22;4961;50.782;6.080;2022-10-26T04:50:30;16.40;99.90
9845;DHT22;4961;50.782;6.080;2022-10-26T04:52:58;16.30;99.90
9845;DHT22;4961;50.782;6.080;2022-10-26T04:55:28;16.30;99.90
9845;DHT22;4961;50.782;6.080;2022-10-26T04:57:56;16.40;99.90
9845;DHT22;4961;50.782;6.080;2022-10-26T05:00:28;16.40;99.90
9845;DHT22;4961;50.782;6.080;2022-10-26T05:02:59;16.40;99.90
9845;DHT22;4961;50.782;6.080;2022-10-26T05:05:29;16.40;99.90
9845;DHT22;4961;50.782;6.080;2022-10-26T05:07:58;16.40;99.90
9845;DHT22;4961;50.782;6.080;2022-10-26T05:10:28;16.40;99.90
9845;DHT22;4961;50.782;6.080;2022-10-26T05:12:57;16.40;99.90
9845;DHT22;4961;50.782;6.080;2022-10-26T05:15:27;16.40;99.90
9845;DHT22;4961;50.782;6.080;2022-10-26T05:17:56;16.50;99.90
9845;DHT22;4961;50.782;6.080;2022-10-26T05:20:25;16.50;99.90
9845;DHT22;4961;50.782;6.080;2022-10-26T05:22:56;16.40;99.90
9845;DHT22;4961;50.782;6.080;2022-10-26T05:25:25;16.40;99.90
9845;DHT22;4961;50.782;6.080;2022-10-26T05:27:58;16.40;99.90
9845;DHT22;4961;50.782;6.080;2022-10-26T05:30:27;16.40;99.90
9845;DHT22;4961;50.782;6.080;2022-10-26T05:32:56;16.40;99.90
9845;DHT22;4961;50.782;6.080;2022-10-26T05:35:25;16.30;99.90
9845;DHT22;4961;50.782;6.080;2022-10-26T05:37:53;16.30;99.90
9845;DHT22;4961;50.782;6.080;2022-10-26T05:40:22;16.20;99.90
9845;DHT22;4961;50.782;6.080;2022-10-26T05:42:50;16.10;99.90
9845;DHT22;4961;50.782;6.080;2022-10-26T05:45:20;16.00;99.90
9845;DHT22;4961;50.782;6.080;2022-10-26T05:47:49;15.90;99.90
9845;DHT22;4961;50.782;6.080;2022-10-26T05:50:18;15.90;99.90
9845;DHT22;4961;50.782;6.080;2022-10-26T05:52:47;15.80;99.90
9845;DHT22;4961;50.782;6.080;2022-10-26T05:55:17;15.70;99.90
9845;DHT22;4961;50.782;6.080;2022-10-26T05:57:46;15.60;99.90
9845;DHT22;4961;50.782;6.080;2022-10-26T06:00:17;15.60;99.90
9845;DHT22;4961;50.782;6.080;2022-10-26T06:02:57;15.50;99.90
9845;DHT22;4961;50.782;6.080;2022-10-26T06:05:30;15.50;99.90
9845;DHT22;4961;50.782;6.080;2022-10-26T06:08:00;15.50;99.90
9845;DHT22;4961;50.782;6.080;2022-10-26T06:10:29;15.40;99.90
9845;DHT22;4961;50.782;6.080;2022-10-26T06:12:57;15.30;99.90
9845;DHT22;4961;50.782;6.080;2022-10-26T06:15:27;15.30;99.90
9845;DHT22;4961;50.782;6.080;2022-10-26T06:18:02;15.30;99.90
9845;DHT22;4961;50.782;6.080;2022-10-26T06:20:41;15.30;99.90
9845;DHT22;4961;50.782;6.080;2022-10-26T06:23:26;15.30;99.90
9845;DHT22;4961;50.782;6.080;2022-10-26T06:26:02;15.30;99.90
9845;DHT22;4961;50.782;6.080;2022-10-26T06:28:42;15.30;99.90
9845;DHT22;4961;50.782;6.080;2022-10-26T06:31:16;15.30;99.90
9845;DHT22;4961;50.782;6.080;2022-10-26T06:33:46;15.30;99.90
9845;DHT22;4961;50.782;6.080;2022-10-26T06:36:20;15.30;99.90
9845;DHT22;4961;50.782;6.080;2022-10-26T06:38:52;15.30;99.90
9845;DHT22;4961;50.782;6.080;2022-10-26T06:41:21;15.30;99.90
9845;DHT22;4961;50.782;6.080;2022-10-26T06:43:50;15.30;99.90
9845;DHT22;4961;50.782;6.080;2022-10-26T06:46:28;15.30;99.90
9845;DHT22;4961;50.782;6.080;2022-10-26T06:49:08;15.30;99.90
9845;DHT22;4961;50.782;6.080;2022-10-26T06:51:45;15.30;99.90
9845;DHT22;4961;50.782;6.080;2022-10-26T06:54:19;15.30;99.90
9845;DHT22;4961;50.782;6.080;2022-10-26T06:56:49;15.30;99.90
9845;DHT22;4961;50.782;6.080;2022-10-26T06:59:28;15.30;99.90
9845;DHT22;4961;50.782;6.080;2022-10-26T07:01:57;15.30;99.90
9845;DHT22;4961;50.782;6.080;2022-10-26T07:04:33;15.30;99.90
9845;DHT22;4961;50.782;6.080;2022-10-26T07:07:02;15.30;99.90
9845;DHT22;4961;50.782;6.080;2022-10-26T07:09:31;15.30;99.90
9845;DHT22;4961;50.782;6.080;2022-10-26T07:11:59;15.30;99.90
9845;DHT22;4961;50.782;6.080;2022-10-26T07:14:28;15.20;99.90
9845;DHT22;4961;50.782;6.080;2022-10-26T07:16:56;15.20;99.90
9845;DHT22;4961;50.782;6.080;2022-10-26T07:19:24;15.20;99.90
9845;DHT22;4961;50.782;6.080;2022-10-26T07:21:54;15.20;99.90
9845;DHT22;4961;50.782;6.080;2022-10-26T07:24:25;15.20;99.90
9845;DHT22;4961;50.782;6.080;2022-10-26T07:26:53;15.20;99.90
9845;DHT22;4961;50.782;6.080;2022-10-26T07:29:23;15.20;99.90
9845;DHT22;4961;50.782;6.080;2022-10-26T07:31:52;15.20;99.90
9845;DHT22;4961;50.782;6.080;2022-10-26T07:34:20;15.30;99.90
9845;DHT22;4961;50.782;6.080;2022-10-26T07:36:48;15.30;99.90
9845;DHT22;4961;50.782;6.080;2022-10-26T07:39:19;15.30;99.90
9845;DHT22;4961;50.782;6.080;2022-10-26T07:41:48;15.30;99.90
9845;DHT22;4961;50.782;6.080;2022-10-26T07:44:17;15.40;99.90
9845;DHT22;4961;50.782;6.080;2022-10-26T07:46:45;15.40;99.90
9845;DHT22;4961;50.782;6.080;2022-10-26T07:49:13;15.60;99.90
9845;DHT22;4961;50.782;6.080;2022-10-26T07:51:46;15.70;99.90
9845;DHT22;4961;50.782;6.080;2022-10-26T07:54:14;15.80;99.90
9845;DHT22;4961;50.782;6.080;2022-10-26T07:56:44;15.90;99.90
9845;DHT22;4961;50.782;6.080;2022-10-26T07:59:16;16.00;99.90
9845;DHT22;4961;50.782;6.080;2022-10-26T08:01:44;16.00;99.90
9845;DHT22;4961;50.782;6.080;2022-10-26T08:04:12;16.10;99.90
9845;DHT22;4961;50.782;6.080;2022-10-26T08:06:41;16.20;99.90
9845;DHT22;4961;50.782;6.080;2022-10-26T08:09:10;16.20;99.90
9845;DHT22;4961;50.782;6.080;2022-10-26T08:11:41;16.20;99.90
9845;DHT22;4961;50.782;6.080;2022-10-26T08:14:17;16.30;99.90
9845;DHT22;4961;50.782;6.080;2022-10-26T08:16:51;16.30;99.90
9845;DHT22;4961;50.782;6.080;2022-10-26T08:19:19;16.30;99.90
9845;DHT22;4961;50.782;6.080;2022-10-26T08:21:47;16.30;99.90
9845;DHT22;4961;50.782;6.080;2022-10-26T08:24:16;16.40;99.90
9845;DHT22;4961;50.782;6.080;2022-10-26T08:26:44;16.50;99.90
9845;DHT22;4961;50.782;6.080;2022-10-26T08:29:12;16.60;99.90
9845;DHT22;4961;50.782;6.080;2022-10-26T08:31:42;16.70;99.90
9845;DHT22;4961;50.782;6.080;2022-10-26T08:34:11;16.80;99.90
9845;DHT22;4961;50.782;6.080;2022-10-26T08:36:39;16.80;99.90
9845;DHT22;4961;50.782;6.080;2022-10-26T08:39:07;16.90;99.90
9845;DHT22;4961;50.782;6.080;2022-10-26T08:41:36;16.90;99.90
9845;DHT22;4961;50.782;6.080;2022-10-26T08:44:17;17.00;99.90
9845;DHT22;4961;50.782;6.080;2022-10-26T08:46:54;17.10;99.90
9845;DHT22;4961;50.782;6.080;2022-10-26T08:49:39;17.20;99.90
9845;DHT22;4961;50.782;6.080;2022-10-26T08:52:11;17.40;99.90
9845;DHT22;4961;50.782;6.080;2022-10-26T08:54:43;17.50;99.90
9845;DHT22;4961;50.782;6.080;2022-10-26T08:57:19;17.70;99.90
9845;DHT22;4961;50.782;6.080;2022-10-26T09:00:03;18.00;99.90
9845;DHT22;4961;50.782;6.080;2022-10-26T09:02:39;18.40;99.90
9845;DHT22;4961;50.782;6.080;2022-10-26T09:05:14;18.80;99.90
9845;DHT22;4961;50.782;6.080;2022-10-26T09:07:50;19.30;99.90
9845;DHT22;4961;50.782;6.080;2022-10-26T09:10:49;19.70;99.90
9845;DHT22;4961;50.782;6.080;2022-10-26T09:13:32;20.10;99.90
9845;DHT22;4961;50.782;6.080;2022-10-26T09:16:10;20.40;99.90
9845;DHT22;4961;50.782;6.080;2022-10-26T09:18:54;20.70;99.90
9845;DHT22;4961;50.782;6.080;2022-10-26T09:21:39;21.00;99.90
9845;DHT22;4961;50.782;6.080;2022-10-26T09:24:13;21.10;99.90
9845;DHT22;4961;50.782;6.080;2022-10-26T09:26:54;21.20;99.90
9845;DHT22;4961;50.782;6.080;2022-10-26T09:29:26;21.30;99.90
9845;DHT22;4961;50.782;6.080;2022-10-26T09:31:59;21.40;99.90
9845;DHT22;4961;50.782;6.080;2022-10-26T09:34:33;21.50;99.90
9845;DHT22;4961;50.782;6.080;2022-10-26T09:37:19;21.50;99.90
9845;DHT22;4961;50.782;6.080;2022-10-26T09:39:56;21.90;99.90
9845;DHT22;4961;50.782;6.080;2022-10-26T09:42:32;22.20;99.90
9845;DHT22;4961;50.782;6.080;2022-10-26T09:45:09;22.60;99.90
9845;DHT22;4961;50.782;6.080;2022-10-26T09:47:42;22.80;99.90
9845;DHT22;4961;50.782;6.080;2022-10-26T09:50:21;22.50;99.90
9845;DHT22;4961;50.782;6.080;2022-10-26T09:52:52;22.50;99.90
9845;DHT22;4961;50.782;6.080;2022-10-26T09:55:21;22.30;99.90
9845;DHT22;4961;50.782;6.080;2022-10-26T09:57:54;22.50;99.90
9845;DHT22;4961;50.782;6.080;2022-10-26T10:00:26;22.90;99.90
9845;DHT22;4961;50.782;6.080;2022-10-26T10:02:56;23.20;99.90
9845;DHT22;4961;50.782;6.080;2022-10-26T10:05:29;23.40;99.90
9845;DHT22;4961;50.782;6.080;2022-10-26T10:08:19;23.50;99.90
9845;DHT22;4961;50.782;6.080;2022-10-26T10:10:56;23.30;99.90
9845;DHT22;4961;50.782;6.080;2022-10-26T10:13:26;23.30;99.90
9845;DHT22;4961;50.782;6.080;2022-10-26T10:16:05;23.40;99.90
9845;DHT22;4961;50.782;6.080;2022-10-26T10:18:34;23.30;99.90
9845;DHT22;4961;50.782;6.080;2022-10-26T10:21:06;23.20;99.90
9845;DHT22;4961;50.782;6.080;2022-10-26T10:23:46;23.00;99.90
9845;DHT22;4961;50.782;6.080;2022-10-26T10:26:15;22.90;99.90
9845;DHT22;4961;50.782;6.080;2022-10-26T10:28:55;22.90;99.90
9845;DHT22;4961;50.782;6.080;2022-10-26T10:31:27;22.90;99.90
9845;DHT22;4961;50.782;6.080;2022-10-26T10:33:56;22.80;99.90
9845;DHT22;4961;50.782;6.080;2022-10-26T10:36:28;22.70;99.90
9845;DHT22;4961;50.782;6.080;2022-10-26T10:38:58;22.90;99.90
9845;DHT22;4961;50.782;6.080;2022-10-26T10:41:28;22.90;99.90
9845;DHT22;4961;50.782;6.080;2022-10-26T10:44:04;22.50;99.90
9845;DHT22;4961;50.782;6.080;2022-10-26T10:46:33;22.30;99.90
9845;DHT22;4961;50.782;6.080;2022-10-26T10:49:05;22.20;99.90
9845;DHT22;4961;50.782;6.080;2022-10-26T10:51:39;22.20;99.90
9845;DHT22;4961;50.782;6.080;2022-10-26T10:54:19;22.10;99.90
9845;DHT22;4961;50.782;6.080;2022-10-26T10:56:51;22.20;99.90
9845;DHT22;4961;50.782;6.080;2022-10-26T10:59:39;22.10;99.90
9845;DHT22;4961;50.782;6.080;2022-10-26T11:02:29;21.90;99.90
9845;DHT22;4961;50.782;6.080;2022-10-26T11:05:16;21.80;99.90
9845;DHT22;4961;50.782;6.080;2022-10-26T11:07:56;21.80;99.90
9845;DHT22;4961;50.782;6.080;2022-10-26T11:10:33;21.80;99.90
9845;DHT22;4961;50.782;6.080;2022-10-26T11:13:19;21.70;99.90
9845;DHT22;4961;50.782;6.080;2022-10-26T11:15:53;21.70;99.90
9845;DHT22;4961;50.782;6.080;2022-10-26T11:18:28;21.70;99.90
9845;DHT22;4961;50.782;6.080;2022-10-26T11:21:01;21.80;99.90
9845;DHT22;4961;50.782;6.080;2022-10-26T11:23:36;21.60;99.90
9845;DHT22;4961;50.782;6.080;2022-10-26T11:26:11;21.40;99.90
9845;DHT22;4961;50.782;6.080;2022-10-26T11:28:46;21.40;99.90
9845;DHT22;4961;50.782;6.080;2022-10-26T11:31:20;21.40;99.90
9845;DHT22;4961;50.782;6.080;2022-10-26T11:34:05;21.40;99.90
9845;DHT22;4961;50.782;6.080;2022-10-26T11:36:36;21.30;99.90
9845;DHT22;4961;50.782;6.080;2022-10-26T11:39:13;21.30;99.90
9845;DHT22;4961;50.782;6.080;2022-10-26T11:41:59;21.20;99.90
9845;DHT22;4961;50.782;6.080;2022-10-26T11:44:41;21.20;99.90
9845;DHT22;4961;50.782;6.080;2022-10-26T11:47:26;21.20;99.90
9845;DHT22;4961;50.782;6.080;2022-10-26T11:50:04;21.20;99.90
9845;DHT22;4961;50.782;6.080;2022-10-26T11:52:38;21.20;99.90
9845;DHT22;4961;50.782;6.080;2022-10-26T11:55:13;21.30;99.90
9845;DHT22;4961;50.782;6.080;2022-10-26T11:57:41;21.30;99.90
9845;DHT22;4961;50.782;6.080;2022-10-26T12:00:15;21.30;99.90
9845;DHT22;4961;50.782;6.080;2022-10-26T12:03:00;21.20;99.90
9845;DHT22;4961;50.782;6.080;2022-10-26T12:05:52;21.20;99.90
9845;DHT22;4961;50.782;6.080;2022-10-26T12:08:32;21.20;99.90
9845;DHT22;4961;50.782;6.080;2022-10-26T12:11:11;21.30;99.90
9845;DHT22;4961;50.782;6.080;2022-10-26T12:13:45;21.40;99.90
9845;DHT22;4961;50.782;6.080;2022-10-26T12:16:21;21.40;99.90
9845;DHT22;4961;50.782;6.080;2022-10-26T12:18:57;21.40;99.90
9845;DHT22;4961;50.782;6.080;2022-10-26T12:21:27;21.40;99.90
9845;DHT22;4961;50.782;6.080;2022-10-26T12:23:57;21.40;99.90
9845;DHT22;4961;50.782;6.080;2022-10-26T12:26:50;21.50;99.90
9845;DHT22;4961;50.782;6.080;2022-10-26T12:29:32;21.60;99.90
9845;DHT22;4961;50.782;6.080;2022-10-26T12:34:59;21.50;99.90
9845;DHT22;4961;50.782;6.080;2022-10-26T12:37:31;21.50;99.90
9845;DHT22;4961;50.782;6.080;2022-10-26T12:40:38;21.40;99.90
9845;DHT22;4961;50.782;6.080;2022-10-26T12:43:34;21.50;99.90
9845;DHT22;4961;50.782;6.080;2022-10-26T12:52:41;21.70;99.90
9845;DHT22;4961;50.782;6.080;2022-10-26T13:01:56;21.80;99.90
9845;DHT22;4961;50.782;6.080;2022-10-26T13:07:35;21.80;99.90
9845;DHT22;4961;50.782;6.080;2022-10-26T13:10:18;21.90;99.90
9845;DHT22;4961;50.782;6.080;2022-10-26T13:12:50;21.80;99.90
9845;DHT22;4961;50.782;6.080;2022-10-26T13:15:25;21.80;99.90
9845;DHT22;4961;50.782;6.080;2022-10-26T13:18:09;21.80;99.90
9845;DHT22;4961;50.782;6.080;2022-10-26T13:20:52;21.80;99.90
9845;DHT22;4961;50.782;6.080;2022-10-26T13:23:24;21.80;99.90
9845;DHT22;4961;50.782;6.080;2022-10-26T13:26:05;21.90;99.90
9845;DHT22;4961;50.782;6.080;2022-10-26T13:28:44;22.00;99.90
9845;DHT22;4961;50.782;6.080;2022-10-26T13:34:15;22.10;99.90
9845;DHT22;4961;50.782;6.080;2022-10-26T13:36:52;22.20;99.90
9845;DHT22;4961;50.782;6.080;2022-10-26T13:39:26;22.20;99.90
9845;DHT22;4961;50.782;6.080;2022-10-26T13:41:58;22.30;99.90
9845;DHT22;4961;50.782;6.080;2022-10-26T13:44:29;22.40;99.90
9845;DHT22;4961;50.782;6.080;2022-10-26T13:47:02;22.40;99.90
9845;DHT22;4961;50.782;6.080;2022-10-26T13:49:37;22.40;99.90
9845;DHT22;4961;50.782;6.080;2022-10-26T13:52:13;22.40;99.90
9845;DHT22;4961;50.782;6.080;2022-10-26T13:54:48;22.30;99.90
9845;DHT22;4961;50.782;6.080;2022-10-26T13:57:24;22.20;99.90
9845;DHT22;4961;50.782;6.080;2022-10-26T13:59:56;22.20;99.90
9845;DHT22;4961;50.782;6.080;2022-10-26T14:02:30;22.10;99.90
9845;DHT22;4961;50.782;6.080;2022-10-26T14:05:01;22.10;99.90
9845;DHT22;4961;50.782;6.080;2022-10-26T14:07:34;22.00;99.90
9845;DHT22;4961;50.782;6.080;2022-10-26T14:10:04;21.90;99.90
9845;DHT22;4961;50.782;6.080;2022-10-26T14:12:33;21.90;99.90
9845;DHT22;4961;50.782;6.080;2022-10-26T14:15:05;21.80;99.90
9845;DHT22;4961;50.782;6.080;2022-10-26T14:17:35;21.80;99.90
9845;DHT22;4961;50.782;6.080;2022-10-26T14:20:10;21.70;99.90
9845;DHT22;4961;50.782;6.080;2022-10-26T14:22:44;21.80;99.90
9845;DHT22;4961;50.782;6.080;2022-10-26T14:25:17;21.70;99.90
9845;DHT22;4961;50.782;6.080;2022-10-26T14:28:15;21.60;99.90
9845;DHT22;4961;50.782;6.080;2022-10-26T14:30:46;21.60;99.90
9845;DHT22;4961;50.782;6.080;2022-10-26T14:33:19;21.50;99.90
9845;DHT22;4961;50.782;6.080;2022-10-26T14:35:51;21.30;99.90
9845;DHT22;4961;50.782;6.080;2022-10-26T14:38:27;21.20;99.90
9845;DHT22;4961;50.782;6.080;2022-10-26T14:41:03;21.20;99.90
9845;DHT22;4961;50.782;6.080;2022-10-26T14:43:31;21.10;99.90
9845;DHT22;4961;50.782;6.080;2022-10-26T14:46:00;21.20;99.90
9845;DHT22;4961;50.782;6.080;2022-10-26T14:48:32;21.20;99.90
9845;DHT22;4961;50.782;6.080;2022-10-26T14:51:05;21.20;99.90
9845;DHT22;4961;50.782;6.080;2022-10-26T14:53:37;21.10;99.90
9845;DHT22;4961;50.782;6.080;2022-10-26T14:56:24;21.10;99.90
9845;DHT22;4961;50.782;6.080;2022-10-26T14:58:55;21.10;99.90
9845;DHT22;4961;50.782;6.080;2022-10-26T15:01:31;21.00;99.90
9845;DHT22;4961;50.782;6.080;2022-10-26T15:04:04;20.90;99.90
9845;DHT22;4961;50.782;6.080;2022-10-26T15:06:44;20.80;99.90
9845;DHT22;4961;50.782;6.080;2022-10-26T15:09:43;20.80;99.90
9845;DHT22;4961;50.782;6.080;2022-10-26T15:12:30;20.70;99.90
9845;DHT22;4961;50.782;6.080;2022-10-26T15:15:09;20.60;99.90
9845;DHT22;4961;50.782;6.080;2022-10-26T15:17:40;20.60;99.90
9845;DHT22;4961;50.782;6.080;2022-10-26T15:20:15;20.60;99.90
9845;DHT22;4961;50.782;6.080;2022-10-26T15:22:51;20.60;99.90
9845;DHT22;4961;50.782;6.080;2022-10-26T15:25:22;20.60;99.90
9845;DHT22;4961;50.782;6.080;2022-10-26T15:27:51;20.60;99.90
9845;DHT22;4961;50.782;6.080;2022-10-26T15:30:23;20.50;99.90
9845;DHT22;4961;50.782;6.080;2022-10-26T15:32:52;20.50;99.90
9845;DHT22;4961;50.782;6.080;2022-10-26T15:35:29;20.50;99.90
9845;DHT22;4961;50.782;6.080;2022-10-26T15:37:59;20.40;99.90
9845;DHT22;4961;50.782;6.080;2022-10-26T15:40:30;20.30;99.90
9845;DHT22;4961;50.782;6.080;2022-10-26T15:43:00;20.20;99.90
9845;DHT22;4961;50.782;6.080;2022-10-26T15:45:30;20.20;99.90
9845;DHT22;4961;50.782;6.080;2022-10-26T15:48:21;20.20;99.90
9845;DHT22;4961;50.782;6.080;2022-10-26T15:50:51;20.20;99.90
9845;DHT22;4961;50.782;6.080;2022-10-26T15:53:23;20.10;99.90
9845;DHT22;4961;50.782;6.080;2022-10-26T15:55:56;20.10;99.90
9845;DHT22;4961;50.782;6.080;2022-10-26T15:58:25;20.10;99.90
9845;DHT22;4961;50.782;6.080;2022-10-26T16:00:54;19.90;99.90
9845;DHT22;4961;50.782;6.080;2022-10-26T16:03:24;19.90;99.90
9845;DHT22;4961;50.782;6.080;2022-10-26T16:05:56;19.80;99.90
9845;DHT22;4961;50.782;6.080;2022-10-26T16:08:29;19.80;99.90
9845;DHT22;4961;50.782;6.080;2022-10-26T16:10:58;19.80;99.90
9845;DHT22;4961;50.782;6.080;2022-10-26T16:13:26;19.70;99.90
9845;DHT22;4961;50.782;6.080;2022-10-26T16:15:57;19.70;99.90
9845;DHT22;4961;50.782;6.080;2022-10-26T16:18:25;19.60;99.90
9845;DHT22;4961;50.782;6.080;2022-10-26T16:20:54;19.60;99.90
9845;DHT22;4961;50.782;6.080;2022-10-26T16:23:22;19.50;99.90
9845;DHT22;4961;50.782;6.080;2022-10-26T16:25:52;19.60;99.90
9845;DHT22;4961;50.782;6.080;2022-10-26T16:28:20;19.50;99.90
9845;DHT22;4961;50.782;6.080;2022-10-26T16:30:49;19.40;99.90
9845;DHT22;4961;50.782;6.080;2022-10-26T16:33:17;19.40;99.90
9845;DHT22;4961;50.782;6.080;2022-10-26T16:35:54;19.40;99.90
9845;DHT22;4961;50.782;6.080;2022-10-26T16:38:25;19.30;99.90
9845;DHT22;4961;50.782;6.080;2022-10-26T16:41:01;19.30;99.90
9845;DHT22;4961;50.782;6.080;2022-10-26T16:43:30;19.30;99.90
9845;DHT22;4961;50.782;6.080;2022-10-26T16:46:04;19.30;99.90
9845;DHT22;4961;50.782;6.080;2022-10-26T16:48:34;19.30;99.90
9845;DHT22;4961;50.782;6.080;2022-10-26T16:51:05;19.20;99.90
9845;DHT22;4961;50.782;6.080;2022-10-26T16:53:34;19.20;99.90
9845;DHT22;4961;50.782;6.080;2022-10-26T16:56:05;19.10;99.90
9845;DHT22;4961;50.782;6.080;2022-10-26T16:58:34;19.10;99.90
9845;DHT22;4961;50.782;6.080;2022-10-26T17:01:03;19.00;99.90
9845;DHT22;4961;50.782;6.080;2022-10-26T17:03:33;19.00;99.90
9845;DHT22;4961;50.782;6.080;2022-10-26T17:06:03;19.00;99.90